Albany, Nebraska
Current Conditions -  °F | °C
As of 7:15 PM on Tuesday 27 Jan 2015 (Local Time) from KHDE Reporting Station
Clear Clear  
Wind Chill: 47°   Ceiling: Unl
Heat Index: 49°   Visibility: 10mi
Dew Point: 29°   Wind: 6mph
Humidity: 46%   Direction: 140°SE
Pressure: 29.93"   Gusts: NA
Location:  40.2849°N, 99.6171°W
Report Text: KHDE 280115Z AUTO 14005KT 10SM CLR 10/M01 A2993 RMK AO2 T00961015
Loading
Personal Weather Stations






























Interactive Weather Map New forecast layout! Learn more

10-Day Weather Forecast

Advertisements
Track Severe Weather on mobile